Time;durP1;ratioP1;P1;durP2;ratioP2;P2;SDS_P1;SDS_P2;PMS_P1;PMS_P2;Temp;Humidity;BMP_temperature;BMP_pressure;BME280_temperature;BME280_humidity;BME280_pressure;Samples;Min_cycle;Max_cycle;Signal;HPM_P1;HPM_P2
2022/05/07 00:01:03;;;;;;;2.87;2.20;;;12.10;59.00;;;;;;948929;151;27330;-73
2022/05/07 00:03:29;;;;;;;2.60;1.63;;;12.10;58.60;;;;;;948896;150;27447;-73
2022/05/07 00:05:56;;;;;;;2.27;1.70;;;12.00;58.80;;;;;;947967;148;27410;-73
2022/05/07 00:08:23;;;;;;;1.83;1.70;;;12.00;58.80;;;;;;948240;150;27351;-73
2022/05/07 00:10:49;;;;;;;2.40;1.90;;;12.00;58.80;;;;;;947896;150;27325;-73
2022/05/07 00:13:16;;;;;;;2.60;2.10;;;12.00;59.00;;;;;;947149;151;27288;-73
2022/05/07 00:18:01;;;;;;;2.43;1.90;;;11.90;59.10;;;;;;948503;148;27331;-73
2022/05/07 00:18:10;;;;;;;2.00;1.90;;;11.90;59.20;;;;;;946546;151;27329;-73
2022/05/07 00:20:36;;;;;;;2.93;2.33;;;11.90;59.30;;;;;;947518;150;27333;-73
2022/05/07 00:23:02;;;;;;;2.20;2.00;;;11.80;59.60;;;;;;947507;150;27416;-73
2022/05/07 00:25:29;;;;;;;2.33;1.90;;;11.80;59.60;;;;;;948082;151;27329;-74
2022/05/07 00:27:55;;;;;;;2.20;2.00;;;11.70;59.70;;;;;;948153;151;27295;-73
2022/05/07 00:30:22;;;;;;;3.20;2.00;;;11.70;59.70;;;;;;948713;150;27243;-73
2022/05/07 00:32:49;;;;;;;2.03;1.83;;;11.70;59.90;;;;;;948725;150;27413;-73
2022/05/07 00:35:16;;;;;;;2.60;2.03;;;11.70;59.90;;;;;;947367;150;27325;-73
2022/05/07 00:37:42;;;;;;;2.13;2.03;;;11.60;60.00;;;;;;948642;148;27424;-73
2022/05/07 00:40:08;;;;;;;2.17;1.90;;;11.60;60.10;;;;;;948182;151;27675;-73
2022/05/07 00:42:35;;;;;;;2.10;1.90;;;11.60;60.20;;;;;;948168;151;27296;-73
2022/05/07 00:45:01;;;;;;;2.20;2.00;;;11.50;60.20;;;;;;948321;150;27687;-73
2022/05/07 00:47:28;;;;;;;3.23;1.80;;;11.50;60.50;;;;;;948328;150;27325;-73
2022/05/07 00:52:24;;;;;;;1.80;1.70;;;11.40;60.60;;;;;;914098;151;27429;-73
2022/05/07 00:54:50;;;;;;;1.97;1.87;;;11.40;60.70;;;;;;943995;150;27409;-73
2022/05/07 00:57:17;;;;;;;1.90;1.80;;;11.30;60.80;;;;;;939898;150;27312;-74
2022/05/07 00:59:45;;;;;;;4.93;2.00;;;11.30;61.00;;;;;;940136;151;27328;-73
2022/05/07 01:02:10;;;;;;;2.37;2.10;;;11.20;61.10;;;;;;939652;150;27421;-73
2022/05/07 01:04:37;;;;;;;1.77;1.67;;;11.20;61.20;;;;;;939045;152;27349;-73
2022/05/07 01:07:03;;;;;;;2.87;2.47;;;11.10;61.30;;;;;;940600;152;27236;-73
2022/05/07 01:09:30;;;;;;;2.07;1.97;;;11.10;61.40;;;;;;939537;151;27928;-73
2022/05/07 01:11:57;;;;;;;2.33;2.13;;;11.10;62.40;;;;;;940494;151;27311;-73
2022/05/07 01:14:23;;;;;;;2.10;1.90;;;11.00;61.70;;;;;;939584;152;27451;-73
2022/05/07 01:16:50;;;;;;;2.23;2.10;;;11.00;61.80;;;;;;940028;151;28288;-73
2022/05/07 01:19:16;;;;;;;2.60;2.33;;;10.90;61.90;;;;;;939725;152;27305;-73
2022/05/07 01:21:43;;;;;;;2.27;2.07;;;10.90;62.20;;;;;;939985;151;27315;-73
2022/05/07 01:24:09;;;;;;;2.07;1.90;;;10.80;62.30;;;;;;939791;150;27282;-73
2022/05/07 01:26:36;;;;;;;3.13;2.00;;;10.80;62.30;;;;;;940477;149;28213;-73
2022/05/07 01:29:07;;;;;;;2.10;1.97;;;10.80;62.50;;;;;;940163;150;27332;-73
2022/05/07 01:31:29;;;;;;;4.57;2.90;;;10.70;62.50;;;;;;939205;151;27348;-72
2022/05/07 01:33:56;;;;;;;2.50;2.30;;;10.70;62.70;;;;;;940001;152;27250;-72
2022/05/07 01:36:22;;;;;;;4.27;2.43;;;10.70;63.00;;;;;;939673;150;27669;-73
2022/05/07 01:38:49;;;;;;;2.53;2.33;;;10.60;63.20;;;;;;940157;152;27409;-72
2022/05/07 01:41:16;;;;;;;2.93;2.20;;;10.60;63.30;;;;;;939132;152;27379;-73
2022/05/07 01:43:42;;;;;;;2.23;2.00;;;10.60;63.30;;;;;;940274;150;27959;-72
2022/05/07 01:48:09;;;;;;;3.30;2.10;;;10.50;63.40;;;;;;939320;152;27304;-73
2022/05/07 01:48:35;;;;;;;2.43;2.23;;;10.50;63.50;;;;;;938471;152;27389;-73
2022/05/07 01:51:02;;;;;;;2.40;2.20;;;10.50;63.70;;;;;;940687;152;27341;-72
2022/05/07 01:53:29;;;;;;;2.33;2.13;;;10.50;63.90;;;;;;940261;150;27417;-73
2022/05/07 01:55:55;;;;;;;3.50;2.50;;;10.50;64.00;;;;;;945201;149;27436;-73
2022/05/07 01:58:22;;;;;;;2.87;2.50;;;10.40;64.30;;;;;;947059;151;27399;-73
2022/05/07 02:00:48;;;;;;;2.70;2.50;;;10.40;64.30;;;;;;948268;150;27788;-73
2022/05/07 02:03:15;;;;;;;2.47;2.27;;;10.40;64.40;;;;;;947001;150;27361;-74
2022/05/07 02:05:42;;;;;;;2.20;2.00;;;10.40;64.50;;;;;;948061;150;27411;-73
2022/05/07 02:08:08;;;;;;;2.73;2.53;;;10.40;64.60;;;;;;948451;151;27439;-73
2022/05/07 02:10:35;;;;;;;2.50;2.30;;;10.40;64.80;;;;;;948080;151;27410;-73
2022/05/07 02:13:01;;;;;;;4.23;2.73;;;10.30;64.70;;;;;;948029;151;27371;-72
2022/05/07 02:15:28;;;;;;;2.83;2.63;;;10.30;65.00;;;;;;947412;150;27762;-74
2022/05/07 02:17:56;;;;;;;4.13;2.20;;;10.30;65.10;;;;;;948312;148;27323;-73
2022/05/07 02:20:21;;;;;;;2.60;2.40;;;10.30;65.30;;;;;;948115;150;27323;-73
2022/05/07 02:22:48;;;;;;;3.17;2.37;;;10.30;65.30;;;;;;948575;150;28487;-73
2022/05/07 02:25:14;;;;;;;2.37;2.17;;;10.30;65.40;;;;;;948205;151;27323;-73
2022/05/07 02:27:42;;;;;;;2.20;2.10;;;10.20;65.40;;;;;;948271;151;27324;-73
2022/05/07 02:30:08;;;;;;;2.30;2.10;;;10.30;65.40;;;;;;948670;150;27361;-73
2022/05/07 02:32:34;;;;;;;2.80;2.60;;;10.20;65.40;;;;;;947923;150;27452;-73
2022/05/07 02:35:01;;;;;;;4.27;3.10;;;10.20;65.70;;;;;;948275;150;27351;-73
2022/05/07 02:37:27;;;;;;;2.40;2.20;;;10.20;65.70;;;;;;948024;150;27325;-73
2022/05/07 02:39:54;;;;;;;2.40;2.20;;;10.20;65.80;;;;;;948325;150;27283;-73
2022/05/07 02:42:41;;;;;;;2.53;2.10;;;10.20;65.90;;;;;;947679;150;27416;-73
2022/05/07 02:45:06;;;;;;;2.77;2.40;;;10.10;65.90;;;;;;947620;151;27435;-73
2022/05/07 02:47:32;;;;;;;3.63;2.10;;;10.10;65.70;;;;;;947540;150;27315;-73
2022/05/07 02:49:58;;;;;;;3.33;2.47;;;10.00;65.80;;;;;;948376;150;27256;-73
2022/05/07 02:52:25;;;;;;;2.67;2.37;;;10.00;65.90;;;;;;948033;150;27295;-73
2022/05/07 02:54:51;;;;;;;2.57;2.30;;;10.00;66.00;;;;;;948155;148;28070;-73
2022/05/07 02:57:18;;;;;;;2.77;2.50;;;9.90;65.20;;;;;;940896;150;27296;-73
2022/05/07 02:59:44;;;;;;;3.00;2.57;;;9.90;66.20;;;;;;940641;152;27344;-73
2022/05/07 03:02:11;;;;;;;3.17;2.73;;;9.90;66.40;;;;;;939142;152;27640;-73
2022/05/07 03:04:38;;;;;;;2.73;2.47;;;9.80;66.40;;;;;;940292;150;27380;-73
2022/05/07 03:07:04;;;;;;;2.77;2.53;;;9.80;66.60;;;;;;940381;151;27284;-73
2022/05/07 03:09:31;;;;;;;2.70;2.50;;;9.70;66.70;;;;;;940629;152;27418;-73
2022/05/07 03:11:57;;;;;;;2.67;2.47;;;9.70;66.90;;;;;;940150;151;27413;-73
2022/05/07 03:14:25;;;;;;;2.80;2.53;;;9.70;67.80;;;;;;940396;152;27355;-73
2022/05/07 03:16:51;;;;;;;2.37;2.17;;;9.70;67.10;;;;;;944054;148;27432;-73
2022/05/07 03:19:17;;;;;;;4.43;2.60;;;9.60;67.00;;;;;;949003;147;27319;-73
2022/05/07 03:21:44;;;;;;;2.97;2.63;;;9.60;67.10;;;;;;930673;150;27366;-73
2022/05/07 03:24:10;;;;;;;2.70;2.50;;;9.60;67.30;;;;;;942183;149;27946;-73
2022/05/07 03:26:37;;;;;;;2.80;2.60;;;9.50;67.50;;;;;;941907;149;27443;-73
2022/05/07 03:29:04;;;;;;;3.13;2.90;;;9.50;67.50;;;;;;942550;149;27777;-73
2022/05/07 03:31:30;;;;;;;3.00;2.70;;;9.50;67.60;;;;;;941932;149;27351;-73
2022/05/07 03:33:57;;;;;;;2.63;2.43;;;9.50;67.80;;;;;;942372;149;27445;-73
2022/05/07 03:36:23;;;;;;;2.83;2.40;;;9.50;67.80;;;;;;941759;149;27382;-73
2022/05/07 03:38:50;;;;;;;2.40;2.30;;;9.40;67.90;;;;;;941532;149;27369;-73
2022/05/07 03:41:19;;;;;;;2.40;2.20;;;9.40;68.00;;;;;;942217;149;27447;-73
2022/05/07 03:43:43;;;;;;;3.00;2.70;;;9.40;68.20;;;;;;941719;149;27435;-73
2022/05/07 03:46:10;;;;;;;2.60;2.40;;;9.30;68.20;;;;;;941683;149;27337;-73
2022/05/07 03:48:36;;;;;;;2.47;2.27;;;9.30;68.40;;;;;;942265;149;27439;-73
2022/05/07 03:51:03;;;;;;;2.20;2.10;;;9.30;68.50;;;;;;941660;149;27514;-73
2022/05/07 03:53:32;;;;;;;3.07;2.80;;;9.30;68.70;;;;;;942225;149;27836;-73
2022/05/07 03:56:05;;;;;;;3.13;2.90;;;9.30;68.90;;;;;;941649;149;27345;-73
2022/05/07 03:58:31;;;;;;;2.73;2.23;;;9.30;69.00;;;;;;941145;149;27890;-74
2022/05/07 04:00:58;;;;;;;2.50;2.23;;;9.30;69.50;;;;;;942273;149;27362;-73
2022/05/07 04:03:24;;;;;;;3.40;2.47;;;9.30;69.30;;;;;;942625;149;28783;-73
2022/05/07 04:05:51;;;;;;;2.63;2.43;;;9.20;69.30;;;;;;942586;149;27387;-73
2022/05/07 04:08:18;;;;;;;2.63;2.43;;;9.30;69.50;;;;;;943126;149;27414;-73
2022/05/07 04:10:44;;;;;;;2.77;2.57;;;9.30;69.60;;;;;;942285;149;27346;-73
2022/05/07 04:13:11;;;;;;;2.50;2.30;;;9.30;69.80;;;;;;942093;149;27434;-73
2022/05/07 04:15:37;;;;;;;3.27;2.83;;;9.30;69.90;;;;;;941917;149;27361;-73
2022/05/07 04:18:07;;;;;;;4.03;2.77;;;9.30;70.00;;;;;;942681;149;27321;-73
2022/05/07 04:20:33;;;;;;;2.93;2.70;;;9.30;70.10;;;;;;941597;149;28048;-73
2022/05/07 04:23:00;;;;;;;3.10;2.60;;;9.40;70.40;;;;;;942112;149;27740;-73
2022/05/07 04:25:26;;;;;;;3.40;2.70;;;9.40;70.40;;;;;;941445;149;28107;-73
2022/05/07 04:27:53;;;;;;;3.37;3.07;;;9.40;70.50;;;;;;942003;149;27430;-73
2022/05/07 04:30:20;;;;;;;3.10;2.80;;;9.50;70.70;;;;;;941913;149;27310;-73
2022/05/07 04:32:46;;;;;;;2.73;2.53;;;9.50;70.90;;;;;;940701;149;27342;-73
2022/05/07 04:35:13;;;;;;;3.10;2.80;;;9.60;71.00;;;;;;942012;149;27314;-73
2022/05/07 04:37:39;;;;;;;3.07;2.87;;;9.70;71.20;;;;;;942201;149;27376;-73
2022/05/07 04:40:06;;;;;;;3.00;2.80;;;9.70;71.40;;;;;;941807;149;27373;-73
2022/05/07 04:42:32;;;;;;;2.60;2.40;;;9.80;71.50;;;;;;942088;149;27334;-73
2022/05/07 04:44:59;;;;;;;2.37;2.10;;;9.90;71.70;;;;;;942624;149;27400;-73
2022/05/07 04:47:26;;;;;;;2.77;2.57;;;10.00;71.70;;;;;;942275;149;27313;-73
2022/05/07 04:49:52;;;;;;;4.27;2.90;;;10.10;71.80;;;;;;942681;149;27329;-73
2022/05/07 04:52:19;;;;;;;3.47;2.83;;;10.20;72.10;;;;;;942511;149;27438;-73
2022/05/07 04:54:45;;;;;;;3.10;2.60;;;10.40;72.60;;;;;;942593;149;27395;-73
2022/05/07 04:57:12;;;;;;;2.73;2.50;;;10.60;73.50;;;;;;941232;149;27365;-73
2022/05/07 04:59:39;;;;;;;3.37;2.67;;;10.90;74.60;;;;;;941975;149;27352;-73
2022/05/07 05:02:05;;;;;;;2.43;2.23;;;11.30;75.60;;;;;;942096;149;27810;-73
2022/05/07 05:04:32;;;;;;;2.47;2.27;;;11.80;76.40;;;;;;942687;149;27393;-73
2022/05/07 05:06:58;;;;;;;2.50;2.30;;;12.50;77.20;;;;;;941988;149;27353;-73
2022/05/07 05:09:25;;;;;;;2.60;2.40;;;13.20;77.40;;;;;;942291;149;27399;-73
2022/05/07 05:11:51;;;;;;;2.83;2.62;;;14.00;77.10;;;;;;941616;149;27333;-73
2022/05/07 05:17:03;;;;;;;2.55;2.35;;;15.60;75.70;;;;;;942034;149;27381;-73
2022/05/07 05:19:29;;;;;;;2.42;2.22;;;16.60;74.40;;;;;;942486;149;27456;-73
2022/05/07 05:21:56;;;;;;;2.42;2.27;;;17.40;72.70;;;;;;943964;148;27298;-73
2022/05/07 05:24:23;;;;;;;2.15;2.05;;;18.30;71.00;;;;;;925390;151;27404;-73
2022/05/07 05:26:49;;;;;;;3.42;2.45;;;19.10;69.30;;;;;;929568;150;27363;-73
2022/05/07 05:29:16;;;;;;;2.20;2.05;;;19.90;67.80;;;;;;944075;148;27306;-73
2022/05/07 05:31:42;;;;;;;1.98;1.80;;;20.60;66.40;;;;;;928561;150;27378;-73
2022/05/07 05:34:09;;;;;;;3.87;2.15;;;21.40;64.50;;;;;;928232;150;27379;-73
2022/05/07 05:36:36;;;;;;;2.27;2.08;;;22.10;62.60;;;;;;927573;150;27427;-73
2022/05/07 05:39:05;;;;;;;2.22;2.10;;;22.80;61.00;;;;;;942307;149;27307;-74
2022/05/07 05:41:29;;;;;;;2.55;2.08;;;23.50;59.70;;;;;;941602;149;27331;-74
2022/05/07 05:43:55;;;;;;;2.33;2.12;;;24.10;58.50;;;;;;942569;149;27865;-74
2022/05/07 05:46:22;;;;;;;2.33;2.12;;;24.70;57.30;;;;;;941834;149;27350;-74
2022/05/07 05:48:49;;;;;;;3.47;2.37;;;25.20;56.50;;;;;;942689;149;27330;-74
2022/05/07 05:51:15;;;;;;;2.30;2.10;;;25.70;55.80;;;;;;942104;149;27291;-74
2022/05/07 05:53:42;;;;;;;2.05;1.92;;;26.30;55.20;;;;;;942189;149;27425;-74
2022/05/07 05:56:08;;;;;;;2.10;2.00;;;26.90;54.50;;;;;;942175;149;27435;-74
2022/05/07 05:58:35;;;;;;;2.35;2.15;;;27.40;53.60;;;;;;941373;149;27492;-74
2022/05/07 06:01:02;;;;;;;2.27;2.17;;;27.90;52.90;;;;;;942731;149;27384;-74
2022/05/07 06:03:28;;;;;;;1.92;1.82;;;28.50;52.00;;;;;;941323;149;27470;-74
2022/05/07 06:05:55;;;;;;;1.75;1.65;;;29.00;51.20;;;;;;942715;149;27337;-74
2022/05/07 06:08:21;;;;;;;1.70;1.60;;;29.50;50.20;;;;;;941790;149;27327;-74
2022/05/07 06:10:52;;;;;;;1.70;1.60;;;29.90;49.20;;;;;;942346;149;27361;-74
2022/05/07 06:13:14;;;;;;;1.62;1.52;;;30.30;48.50;;;;;;941636;149;26306;-74
2022/05/07 06:15:41;;;;;;;2.72;1.87;;;30.60;47.50;;;;;;942187;149;27330;-74
2022/05/07 06:18:08;;;;;;;1.55;1.45;;;30.90;46.70;;;;;;942250;149;27457;-74
2022/05/07 06:20:34;;;;;;;1.90;1.80;;;31.20;45.90;;;;;;942074;149;27358;-74
2022/05/07 06:23:01;;;;;;;1.75;1.65;;;31.40;45.30;;;;;;942237;149;27293;-74
2022/05/07 06:28:13;;;;;;;1.85;1.50;;;31.90;44.70;;;;;;942135;149;27386;-74
2022/05/07 06:30:39;;;;;;;1.55;1.47;;;32.10;44.70;;;;;;941309;149;27306;-74
2022/05/07 06:33:05;;;;;;;1.82;1.40;;;32.40;44.10;;;;;;941503;149;27329;-75
2022/05/07 06:35:32;;;;;;;1.80;1.70;;;32.70;43.50;;;;;;942503;149;27323;-75
2022/05/07 06:37:58;;;;;;;1.52;1.47;;;33.00;42.80;;;;;;942160;149;27365;-75
2022/05/07 06:40:25;;;;;;;1.67;1.57;;;33.20;42.30;;;;;;944662;148;27326;-75
2022/05/07 06:42:51;;;;;;;1.87;1.70;;;33.40;41.90;;;;;;944513;148;27435;-75
2022/05/07 06:45:18;;;;;;;1.65;1.55;;;33.70;41.80;;;;;;932128;150;26211;-75
2022/05/07 06:47:45;;;;;;;1.82;1.72;;;33.90;41.50;;;;;;945671;149;27310;-75
2022/05/07 06:50:11;;;;;;;2.20;2.00;;;34.20;41.10;;;;;;946215;149;27333;-75
2022/05/07 06:52:44;;;;;;;1.62;1.52;;;34.50;40.50;;;;;;949016;147;27422;-75
2022/05/07 06:55:14;;;;;;;1.60;1.50;;;34.80;40.30;;;;;;944568;149;27452;-75
2022/05/07 06:57:40;;;;;;;1.52;1.42;;;35.10;40.00;;;;;;944293;149;26745;-75
2022/05/07 07:00:06;;;;;;;2.85;1.70;;;35.40;39.70;;;;;;938634;151;27459;-75
2022/05/07 07:02:33;;;;;;;2.47;1.60;;;35.70;39.20;;;;;;945588;151;26386;-75
2022/05/07 07:05:00;;;;;;;1.45;1.45;;;36.00;38.70;;;;;;945292;151;26414;-75
2022/05/07 07:07:26;;;;;;;1.42;1.32;;;36.40;38.30;;;;;;943816;151;26302;-75
2022/05/07 07:09:53;;;;;;;1.55;1.45;;;36.70;37.90;;;;;;945278;151;26214;-75
2022/05/07 07:12:22;;;;;;;1.22;1.22;;;37.00;37.20;;;;;;945042;151;26310;-75
2022/05/07 07:14:49;;;;;;;1.30;1.20;;;37.20;36.70;;;;;;945056;151;26316;-75
2022/05/07 07:17:18;;;;;;;1.60;1.50;;;37.50;36.30;;;;;;944352;151;26361;-75
2022/05/07 07:19:45;;;;;;;1.82;1.40;;;37.80;35.80;;;;;;944630;149;26240;-75
2022/05/07 07:22:11;;;;;;;1.02;1.02;;;38.00;35.60;;;;;;945092;151;26252;-75
2022/05/07 07:24:38;;;;;;;1.50;1.40;;;38.30;35.20;;;;;;944176;151;27335;-75
2022/05/07 07:27:04;;;;;;;1.37;1.27;;;38.60;34.60;;;;;;943883;151;26272;-75
2022/05/07 07:29:31;;;;;;;1.50;1.25;;;38.90;34.40;;;;;;944424;151;26255;-75
2022/05/07 07:31:58;;;;;;;2.55;1.17;;;39.10;33.90;;;;;;944251;151;26233;-75
2022/05/07 07:34:24;;;;;;;1.10;1.10;;;39.40;33.30;;;;;;942849;151;26194;-75
2022/05/07 07:36:51;;;;;;;1.98;1.20;;;39.70;33.10;;;;;;943169;151;26197;-75
2022/05/07 07:39:17;;;;;;;1.50;1.40;;;39.90;32.70;;;;;;943279;151;26276;-75
2022/05/07 07:41:44;;;;;;;1.25;1.20;;;40.20;32.40;;;;;;942892;151;26399;-76
2022/05/07 07:44:10;;;;;;;1.20;1.20;;;40.40;32.00;;;;;;942808;151;26248;-76
2022/05/07 07:49:22;;;;;;;1.40;1.30;;;40.80;31.20;;;;;;943385;151;26360;-76
2022/05/07 07:51:49;;;;;;;1.35;1.25;;;41.10;31.00;;;;;;944156;151;26309;-76
2022/05/07 07:54:15;;;;;;;1.17;1.12;;;41.20;30.40;;;;;;944186;151;26259;-76
2022/05/07 07:56:45;;;;;;;5.90;1.37;;;41.40;30.10;;;;;;943872;151;26358;-76
2022/05/07 07:59:11;;;;;;;1.30;1.20;;;41.60;30.00;;;;;;941857;149;26529;-73
2022/05/07 08:01:38;;;;;;;1.42;1.10;;;41.80;29.90;;;;;;941407;149;26284;-73
2022/05/07 08:04:04;;;;;;;2.45;1.10;;;41.90;29.50;;;;;;941963;149;26797;-75
2022/05/07 08:06:33;;;;;;;2.02;1.32;;;42.10;29.20;;;;;;941794;149;26279;-75
2022/05/07 08:11:49;;;;;;;1.37;1.27;;;42.20;28.80;;;;;;941676;149;26254;-75
2022/05/07 08:14:14;;;;;;;1.30;1.20;;;42.40;28.40;;;;;;941463;149;26342;-75
2022/05/07 08:16:41;;;;;;;2.40;1.15;;;42.50;28.40;;;;;;942966;149;26330;-75
2022/05/07 08:19:07;;;;;;;0.90;0.90;;;42.50;28.00;;;;;;942273;149;26276;-75
2022/05/07 08:21:34;;;;;;;1.10;1.10;;;42.60;27.90;;;;;;942650;149;26269;-75
2022/05/07 08:24:01;;;;;;;1.20;1.07;;;42.70;27.80;;;;;;942440;149;26253;-75
2022/05/07 08:26:27;;;;;;;2.02;1.17;;;42.90;27.30;;;;;;943394;149;26317;-75
2022/05/07 08:28:54;;;;;;;1.62;1.15;;;43.00;27.40;;;;;;944035;149;26245;-75
2022/05/07 08:31:23;;;;;;;0.93;0.93;;;43.10;27.30;;;;;;942098;149;26361;-75
2022/05/07 08:33:47;;;;;;;1.77;1.00;;;43.30;27.00;;;;;;941913;149;26376;-76
2022/05/07 08:36:13;;;;;;;0.95;0.95;;;43.40;26.80;;;;;;942927;149;26338;-75
2022/05/07 08:38:40;;;;;;;1.00;1.00;;;43.60;26.80;;;;;;943480;149;26212;-75
2022/05/07 08:41:07;;;;;;;1.80;1.10;;;43.70;26.50;;;;;;943363;149;26672;-75
2022/05/07 08:43:36;;;;;;;1.07;1.07;;;43.90;26.50;;;;;;943989;149;26268;-75
2022/05/07 08:46:12;;;;;;;1.02;1.00;;;44.00;26.30;;;;;;942667;149;26713;-75
2022/05/07 08:48:41;;;;;;;1.37;1.12;;;44.20;26.20;;;;;;943266;149;26241;-75
2022/05/07 08:51:07;;;;;;;3.47;0.90;;;44.30;26.00;;;;;;943751;149;26260;-75
2022/05/07 08:53:34;;;;;;;0.93;0.93;;;44.50;25.60;;;;;;944115;148;26377;-75
2022/05/07 08:56:00;;;;;;;1.32;1.15;;;44.60;25.40;;;;;;943604;149;26300;-75
2022/05/07 08:58:27;;;;;;;0.80;0.80;;;44.60;25.20;;;;;;943150;149;26327;-75
2022/05/07 09:00:54;;;;;;;0.90;0.80;;;44.60;25.10;;;;;;945009;149;26350;-75
2022/05/07 09:03:20;;;;;;;1.15;0.98;;;44.70;25.00;;;;;;943872;151;26280;-75
2022/05/07 09:05:47;;;;;;;1.77;1.02;;;44.70;25.00;;;;;;944531;151;26324;-75
2022/05/07 09:08:13;;;;;;;0.65;0.65;;;44.60;24.60;;;;;;944565;151;26275;-75
2022/05/07 09:10:40;;;;;;;1.37;1.00;;;44.60;24.50;;;;;;944826;151;26228;-75
2022/05/07 09:13:09;;;;;;;1.02;0.78;;;44.60;24.20;;;;;;945241;151;27139;-75
2022/05/07 09:15:55;;;;;;;1.10;1.00;;;44.40;24.10;;;;;;944382;151;26357;-75
2022/05/07 09:18:21;;;;;;;1.22;0.98;;;44.40;24.00;;;;;;944891;149;26190;-75
2022/05/07 09:21:15;;;;;;;0.90;0.78;;;44.30;23.90;;;;;;937726;151;26262;-75
2022/05/07 09:23:26;;;;;;;1.10;0.75;;;44.10;23.90;;;;;;941744;151;26257;-75
2022/05/07 09:25:52;;;;;;;1.15;0.85;;;43.90;23.40;;;;;;929810;154;26899;-75
2022/05/07 09:28:26;;;;;;;3.17;0.98;;;43.80;23.70;;;;;;930177;154;26256;-75
2022/05/07 09:30:52;;;;;;;0.80;0.80;;;43.60;23.70;;;;;;930703;153;26341;-75
2022/05/07 09:33:18;;;;;;;2.58;0.88;;;43.50;23.80;;;;;;927986;154;26346;-75
2022/05/07 09:35:47;;;;;;;0.98;0.88;;;43.40;23.40;;;;;;927806;154;26355;-75
2022/05/07 09:38:14;;;;;;;1.15;1.02;;;43.20;23.20;;;;;;927999;154;26259;-75
2022/05/07 09:40:41;;;;;;;0.85;0.82;;;43.00;23.40;;;;;;944936;149;26614;-75
2022/05/07 09:43:10;;;;;;;0.82;0.72;;;42.70;23.40;;;;;;928784;154;26247;-75
2022/05/07 09:45:37;;;;;;;1.37;0.80;;;42.50;23.50;;;;;;924998;155;26372;-75
2022/05/07 09:48:03;;;;;;;0.90;0.85;;;42.30;23.60;;;;;;945326;151;26390;-74
2022/05/07 10:00:55;;;;;;;1.05;0.95;;;41.30;23.80;;;;;;974771;145;39634;-74
2022/05/07 10:03:40;;;;;;;1.27;1.15;;;40.40;23.80;;;;;;952243;149;26315;-74
2022/05/07 10:06:24;;;;;;;1.77;1.25;;;39.90;23.60;;;;;;942597;151;26213;-74
2022/05/07 10:09:09;;;;;;;1.67;1.45;;;39.30;23.60;;;;;;942553;151;26243;-74
2022/05/07 10:11:36;;;;;;;1.00;1.00;;;38.60;23.70;;;;;;933284;150;26305;-74
2022/05/07 10:14:02;;;;;;;1.65;1.40;;;38.00;24.00;;;;;;944256;151;27344;-74
2022/05/07 10:16:29;;;;;;;1.57;1.30;;;37.40;24.20;;;;;;942183;151;27951;-74
2022/05/07 10:18:55;;;;;;;1.22;1.10;;;36.80;24.30;;;;;;943116;150;27420;-74
2022/05/07 10:21:22;;;;;;;1.87;1.20;;;36.40;24.70;;;;;;942708;150;27294;-74
2022/05/07 10:23:49;;;;;;;1.57;1.47;;;36.00;24.80;;;;;;945189;149;27363;-74
2022/05/07 10:26:15;;;;;;;1.82;1.10;;;35.70;24.90;;;;;;943225;151;27345;-74
2022/05/07 10:28:42;;;;;;;1.17;0.95;;;35.40;24.90;;;;;;943937;150;27344;-74
2022/05/07 10:31:24;;;;;;;1.95;1.60;;;35.00;25.30;;;;;;944740;148;27277;-74
2022/05/07 10:33:50;;;;;;;2.30;1.20;;;34.70;25.40;;;;;;943482;151;27344;-74
2022/05/07 10:36:17;;;;;;;1.60;1.30;;;34.50;25.60;;;;;;943451;151;27421;-74
2022/05/07 10:38:45;;;;;;;1.67;1.20;;;34.20;25.60;;;;;;942981;150;27340;-74
2022/05/07 10:41:14;;;;;;;1.25;0.85;;;34.00;25.60;;;;;;941684;149;27347;-74
2022/05/07 10:43:39;;;;;;;1.95;1.15;;;33.70;25.50;;;;;;944289;151;28520;-74
2022/05/07 10:46:08;;;;;;;1.55;1.17;;;33.60;25.80;;;;;;942732;150;27389;-74
2022/05/07 10:48:55;;;;;;;1.50;1.22;;;33.40;25.90;;;;;;943087;151;27265;-74
2022/05/07 10:51:34;;;;;;;2.08;1.10;;;33.20;26.00;;;;;;942044;149;27467;-74
2022/05/07 10:54:01;;;;;;;1.32;1.22;;;33.00;26.10;;;;;;942078;150;27419;-74
2022/05/07 10:56:27;;;;;;;1.60;1.05;;;32.80;26.00;;;;;;942617;151;27785;-74
2022/05/07 10:58:54;;;;;;;1.60;1.20;;;32.60;26.10;;;;;;942466;149;27365;-74
2022/05/07 11:01:20;;;;;;;1.25;0.95;;;32.40;26.20;;;;;;949487;148;27386;-74
2022/05/07 11:03:47;;;;;;;2.33;1.57;;;32.20;26.30;;;;;;948996;148;27399;-74
2022/05/07 11:06:13;;;;;;;2.62;1.50;;;32.10;26.70;;;;;;949380;148;27296;-74
2022/05/07 11:08:46;;;;;;;1.30;1.20;;;31.90;26.70;;;;;;949909;148;27306;-74
2022/05/07 11:11:15;;;;;;;1.40;1.25;;;31.80;26.70;;;;;;950073;147;27284;-74
2022/05/07 11:13:46;;;;;;;1.77;1.00;;;31.70;26.70;;;;;;949331;149;27411;-74
2022/05/07 11:16:12;;;;;;;1.15;1.00;;;31.70;26.90;;;;;;950539;148;27352;-74
2022/05/07 11:18:41;;;;;;;1.67;1.10;;;31.50;27.00;;;;;;948920;149;27327;-74
2022/05/07 11:21:05;;;;;;;0.90;0.90;;;31.40;27.10;;;;;;948068;148;27339;-74
2022/05/07 11:23:35;;;;;;;1.87;1.10;;;31.40;27.30;;;;;;948870;147;27329;-74
2022/05/07 11:26:14;;;;;;;1.50;1.12;;;31.30;27.50;;;;;;950587;149;27312;-74
2022/05/07 11:28:40;;;;;;;1.67;0.98;;;31.20;27.50;;;;;;949245;150;27396;-74
2022/05/07 11:31:07;;;;;;;1.10;1.00;;;31.20;27.50;;;;;;950517;148;27331;-74
2022/05/07 11:33:33;;;;;;;1.15;1.02;;;31.10;27.60;;;;;;949742;148;27335;-74
2022/05/07 11:36:09;;;;;;;3.22;1.02;;;31.00;27.70;;;;;;950298;150;27304;-74
2022/05/07 11:38:35;;;;;;;1.65;1.27;;;31.00;27.70;;;;;;949329;148;27352;-74
2022/05/07 11:41:11;;;;;;;1.87;1.02;;;31.00;27.80;;;;;;948001;147;27426;-74
2022/05/07 11:46:22;;;;;;;0.80;0.80;;;30.80;27.80;;;;;;949501;150;27410;-74
2022/05/07 11:48:48;;;;;;;1.40;1.12;;;30.80;27.90;;;;;;948632;148;27327;-74
2022/05/07 11:51:24;;;;;;;2.12;1.15;;;30.70;28.00;;;;;;949742;150;27288;-74
2022/05/07 11:53:51;;;;;;;1.05;1.05;;;30.70;28.10;;;;;;949145;149;27364;-74
2022/05/07 11:56:17;;;;;;;1.17;1.07;;;30.70;28.20;;;;;;949592;150;27331;-74
2022/05/07 11:58:48;;;;;;;1.95;1.55;;;30.70;28.20;;;;;;948434;150;27288;-74
2022/05/07 12:01:22;;;;;;;1.80;1.47;;;30.60;28.20;;;;;;940824;149;27472;-74
2022/05/07 12:03:49;;;;;;;1.32;1.00;;;30.50;28.30;;;;;;935118;150;27358;-74
2022/05/07 12:06:25;;;;;;;0.95;0.93;;;30.40;28.40;;;;;;935803;151;27378;-74
2022/05/07 12:08:51;;;;;;;1.55;1.25;;;30.30;28.50;;;;;;935015;152;27357;-74
2022/05/07 12:11:18;;;;;;;1.40;1.17;;;30.20;28.60;;;;;;937132;151;27398;-74
2022/05/07 12:13:44;;;;;;;0.98;0.95;;;30.10;28.80;;;;;;936178;152;27286;-73
2022/05/07 12:18:56;;;;;;;1.37;1.27;;;30.00;28.80;;;;;;937430;152;27299;-74
2022/05/07 12:29:48;;;;;;;1.27;1.17;;;30.00;28.60;;;;;;938452;151;27317;-74
2022/05/07 12:32:03;;;;;;;1.55;1.30;;;29.90;28.90;;;;;;936195;152;27326;-74
2022/05/07 12:34:27;;;;;;;1.57;1.32;;;29.90;28.90;;;;;;935522;151;27240;-73
2022/05/07 12:36:54;;;;;;;1.10;1.10;;;29.80;28.90;;;;;;936932;152;27286;-73
2022/05/07 12:39:20;;;;;;;1.75;1.00;;;29.60;29.00;;;;;;935080;151;27357;-73
2022/05/07 12:41:48;;;;;;;1.40;1.30;;;29.40;29.00;;;;;;935379;151;27366;-73
2022/05/07 12:44:14;;;;;;;2.42;1.30;;;29.20;29.10;;;;;;935391;151;27321;-74
2022/05/07 12:46:40;;;;;;;2.58;1.35;;;28.90;29.20;;;;;;936957;152;27726;-73
2022/05/07 12:49:08;;;;;;;1.15;1.05;;;28.70;29.20;;;;;;936153;151;27330;-74
2022/05/07 12:51:33;;;;;;;1.55;1.30;;;28.50;29.40;;;;;;935862;151;27382;-74
2022/05/07 12:54:00;;;;;;;1.17;1.07;;;28.40;29.60;;;;;;935664;151;28295;-74
2022/05/07 12:56:27;;;;;;;1.10;1.10;;;28.20;29.70;;;;;;936193;152;27440;-73
2022/05/07 12:58:53;;;;;;;0.80;0.80;;;28.00;29.90;;;;;;938245;151;27390;-74
2022/05/07 13:01:20;;;;;;;1.40;1.30;;;27.90;30.00;;;;;;939324;150;27380;-74
2022/05/07 13:03:46;;;;;;;1.32;1.22;;;27.80;30.20;;;;;;943808;148;27442;-73
2022/05/07 13:06:13;;;;;;;2.72;1.55;;;27.80;30.50;;;;;;944911;148;27421;-73
2022/05/07 13:08:39;;;;;;;1.50;1.40;;;27.70;30.50;;;;;;942683;151;27431;-74
2022/05/07 13:11:06;;;;;;;1.30;1.20;;;27.60;30.40;;;;;;943480;151;27326;-73
2022/05/07 13:13:33;;;;;;;1.25;0.78;;;27.50;30.40;;;;;;945514;151;27749;-73
2022/05/07 13:15:59;;;;;;;1.10;1.00;;;27.50;30.60;;;;;;944804;150;27366;-73
2022/05/07 13:18:26;;;;;;;1.50;1.30;;;27.40;30.90;;;;;;944860;150;27420;-74
2022/05/07 13:20:52;;;;;;;1.40;1.30;;;27.30;31.10;;;;;;946323;151;27336;-74
2022/05/07 13:23:19;;;;;;;1.15;1.05;;;27.30;31.20;;;;;;944737;148;27304;-73
2022/05/07 13:25:46;;;;;;;1.10;1.00;;;27.30;31.40;;;;;;942016;150;27414;-73